Time;durP1;ratioP1;P1;durP2;ratioP2;P2;SDS_P1;SDS_P2;PMS_P1;PMS_P2;Temp;Humidity;BMP_temperature;BMP_pressure;BME280_temperature;BME280_humidity;BME280_pressure;Samples;Min_cycle;Max_cycle;Signal;HPM_P1;HPM_P2
2022/10/01 00:00:10;;;;;;;12.82;8.45;;;6.10;99.90;;;;;;5048791;28;20552;-54
2022/10/01 00:02:37;;;;;;;11.23;6.68;;;6.10;99.90;;;;;;5069548;28;20122;-56
2022/10/01 00:05:05;;;;;;;12.10;6.30;;;6.10;99.90;;;;;;5049242;28;20025;-56
2022/10/01 00:07:39;;;;;;;11.75;7.32;;;6.00;99.90;;;;;;5069988;28;20048;-57
2022/10/01 00:10:06;;;;;;;7.43;5.82;;;6.00;99.90;;;;;;5043520;28;20120;-56
2022/10/01 00:12:31;;;;;;;11.35;7.05;;;6.00;99.90;;;;;;5069556;28;20024;-57
2022/10/01 00:14:57;;;;;;;13.23;7.30;;;6.00;99.90;;;;;;5048938;28;20025;-58
2022/10/01 00:17:23;;;;;;;10.88;7.50;;;6.00;99.90;;;;;;5058759;28;20043;-57
2022/10/01 00:19:48;;;;;;;11.80;8.10;;;6.00;99.90;;;;;;5055637;28;20028;-57
2022/10/01 00:22:14;;;;;;;8.90;6.13;;;5.90;99.90;;;;;;5069652;28;20032;-56
2022/10/01 00:24:40;;;;;;;9.60;6.90;;;5.90;99.90;;;;;;5052734;28;20039;-56
2022/10/01 00:27:05;;;;;;;18.98;7.65;;;5.90;99.90;;;;;;5050786;28;20052;-52
2022/10/01 00:29:31;;;;;;;16.45;6.78;;;5.90;99.90;;;;;;5066193;28;20060;-54
2022/10/01 00:31:57;;;;;;;14.70;8.25;;;5.80;99.90;;;;;;5050730;28;20033;-52
2022/10/01 00:34:22;;;;;;;9.90;6.70;;;5.80;99.90;;;;;;5067285;28;20111;-53
2022/10/01 00:36:48;;;;;;;8.90;6.40;;;5.80;99.90;;;;;;5051374;28;20033;-54
2022/10/01 00:39:14;;;;;;;11.50;7.47;;;5.80;99.90;;;;;;5068021;28;20036;-50
2022/10/01 00:41:40;;;;;;;11.98;7.93;;;5.80;99.90;;;;;;5069811;28;20035;-54
2022/10/01 00:44:34;;;;;;;9.70;6.80;;;5.90;99.90;;;;;;5054004;28;20068;-53
2022/10/01 00:47:11;;;;;;;10.43;6.05;;;5.80;99.90;;;;;;5030001;28;20030;-54
2022/10/01 00:49:38;;;;;;;11.07;7.40;;;5.80;99.90;;;;;;5046990;28;20043;-54
2022/10/01 00:52:09;;;;;;;14.23;7.63;;;5.70;99.90;;;;;;5049968;28;20037;-55
2022/10/01 00:54:48;;;;;;;10.63;7.22;;;5.70;99.90;;;;;;5046450;28;20179;-52
2022/10/01 00:57:17;;;;;;;12.07;6.68;;;5.60;99.90;;;;;;5029601;28;20021;-55
2022/10/01 00:59:44;;;;;;;10.15;7.22;;;5.70;99.90;;;;;;5067323;28;20032;-54
2022/10/01 01:02:10;;;;;;;12.32;7.75;;;5.60;99.90;;;;;;5048557;28;20393;-48
2022/10/01 01:04:38;;;;;;;10.35;6.70;;;5.60;99.90;;;;;;5066687;28;20029;-53
2022/10/01 01:07:05;;;;;;;15.00;7.55;;;5.60;99.90;;;;;;5049337;28;20393;-51
2022/10/01 01:09:47;;;;;;;11.30;7.60;;;5.50;99.90;;;;;;5066413;28;20104;-51
2022/10/01 01:12:21;;;;;;;14.38;8.15;;;5.60;99.90;;;;;;5049161;28;20029;-51
2022/10/01 01:15:08;;;;;;;12.50;8.13;;;5.60;99.90;;;;;;5047729;28;20032;-54
2022/10/01 01:17:44;;;;;;;13.43;7.65;;;5.70;99.90;;;;;;5029374;28;20039;-51
2022/10/01 01:20:30;;;;;;;;;;;5.80;99.90;;;;;;5054132;28;20056;-53
2022/10/01 01:23:15;;;;;;;7.95;5.85;;;5.90;99.90;;;;;;5035977;28;19912;-54
2022/10/01 01:25:52;;;;;;;11.98;6.88;;;5.90;99.90;;;;;;5047776;28;20025;-52
2022/10/01 01:28:17;;;;;;;12.02;6.88;;;5.90;99.90;;;;;;5029160;28;20370;-51
2022/10/01 01:30:43;;;;;;;11.30;6.53;;;5.80;99.90;;;;;;5047757;28;20078;-53
2022/10/01 01:33:16;;;;;;;12.88;8.05;;;5.80;99.90;;;;;;5068225;28;20062;-61
2022/10/01 01:35:55;;;;;;;15.80;8.40;;;5.70;99.90;;;;;;5044612;28;20086;-61
2022/10/01 01:38:28;;;;;;;13.55;7.88;;;5.70;99.90;;;;;;5068383;28;20104;-61
2022/10/01 01:40:57;;;;;;;9.73;7.50;;;5.70;99.90;;;;;;5046741;28;20082;-61
2022/10/01 01:43:32;;;;;;;10.95;6.88;;;5.70;99.90;;;;;;5068796;28;20036;-61
2022/10/01 01:45:59;;;;;;;10.05;7.00;;;5.70;99.90;;;;;;5046226;28;20493;-61
2022/10/01 01:48:28;;;;;;;14.02;8.30;;;5.70;99.90;;;;;;5068681;28;20054;-61
2022/10/01 01:50:59;;;;;;;10.07;7.10;;;5.60;99.90;;;;;;5047014;28;20056;-61
2022/10/01 01:53:25;;;;;;;11.13;6.90;;;5.60;99.90;;;;;;5028792;28;20029;-61
2022/10/01 01:55:51;;;;;;;14.80;8.43;;;5.50;99.90;;;;;;5047789;28;20055;-61
2022/10/01 01:58:18;;;;;;;14.50;8.32;;;5.50;99.90;;;;;;5068073;28;20029;-61
2022/10/01 02:00:51;;;;;;;10.57;6.65;;;5.50;99.90;;;;;;5047106;28;20526;-61
2022/10/01 02:03:20;;;;;;;12.52;7.93;;;5.40;99.90;;;;;;5028269;28;20066;-61
2022/10/01 02:06:09;;;;;;;11.43;6.05;;;5.40;99.90;;;;;;5049479;28;20035;-62
2022/10/01 02:09:07;;;;;;;10.70;6.82;;;5.40;99.90;;;;;;5029013;28;20029;-61
2022/10/01 02:11:37;;;;;;;12.27;7.78;;;5.40;99.90;;;;;;5028606;28;20036;-61
2022/10/01 02:14:17;;;;;;;13.02;7.47;;;5.40;99.90;;;;;;5029400;28;20025;-61
2022/10/01 02:17:00;;;;;;;14.15;8.65;;;5.50;99.90;;;;;;5048672;28;20054;-61
2022/10/01 02:20:01;;;;;;;13.75;8.80;;;5.50;99.90;;;;;;5037691;28;20043;-62
2022/10/01 02:22:32;;;;;;;10.02;7.15;;;5.60;99.90;;;;;;5031158;28;20635;-61
2022/10/01 02:25:02;;;;;;;14.60;8.52;;;5.60;99.90;;;;;;5063824;28;20036;-61
2022/10/01 02:27:47;;;;;;;12.18;7.25;;;5.50;99.90;;;;;;5048388;28;20021;-62
2022/10/01 02:30:14;;;;;;;10.73;6.80;;;5.40;99.90;;;;;;5050009;28;20599;-62
2022/10/01 02:32:43;;;;;;;10.98;7.30;;;5.40;99.90;;;;;;5048840;28;20029;-62
2022/10/01 02:35:13;;;;;;;12.40;7.88;;;5.40;99.90;;;;;;5066422;28;20115;-61
2022/10/01 02:37:41;;;;;;;13.18;7.80;;;5.40;99.90;;;;;;5055910;28;20548;-62
2022/10/01 02:40:14;;;;;;;10.10;7.15;;;5.40;99.90;;;;;;5056981;28;20136;-62
2022/10/01 02:42:44;;;;;;;13.10;8.00;;;5.40;99.90;;;;;;5028373;28;20040;-61
2022/10/01 02:45:11;;;;;;;12.20;8.25;;;5.40;99.90;;;;;;5066111;28;20039;-62
2022/10/01 02:47:46;;;;;;;11.32;7.78;;;5.40;99.90;;;;;;5048629;28;20028;-61
2022/10/01 02:50:12;;;;;;;12.35;7.43;;;5.40;99.90;;;;;;5048559;28;20027;-62
2022/10/01 02:52:53;;;;;;;10.15;7.05;;;5.40;99.90;;;;;;5048536;28;20461;-61
2022/10/01 02:55:27;;;;;;;14.25;8.07;;;5.30;99.90;;;;;;5038512;28;20033;-62
2022/10/01 02:57:56;;;;;;;13.45;7.63;;;5.20;99.90;;;;;;5028708;28;20029;-61
2022/10/01 03:00:24;;;;;;;12.02;8.13;;;5.20;99.90;;;;;;5053923;28;20496;-62
2022/10/01 03:02:49;;;;;;;14.02;8.15;;;5.20;99.90;;;;;;5067634;28;20032;-61
2022/10/01 03:05:16;;;;;;;12.68;9.05;;;5.20;99.90;;;;;;5047053;28;20035;-61
2022/10/01 03:07:42;;;;;;;14.07;8.63;;;5.10;99.90;;;;;;5067370;28;20032;-62
2022/10/01 03:10:09;;;;;;;12.73;8.02;;;5.10;99.90;;;;;;5056361;28;20077;-62
2022/10/01 03:12:35;;;;;;;15.23;8.15;;;5.00;99.90;;;;;;5048518;28;20167;-61
2022/10/01 03:15:01;;;;;;;13.32;8.77;;;5.00;99.90;;;;;;5065938;28;20033;-62
2022/10/01 03:17:27;;;;;;;10.52;7.88;;;5.00;99.90;;;;;;5052072;28;20029;-62
2022/10/01 03:19:53;;;;;;;13.05;8.50;;;5.00;99.90;;;;;;5068829;28;20078;-61
2022/10/01 03:22:23;;;;;;;10.63;7.55;;;5.00;99.90;;;;;;5051916;28;20025;-60
2022/10/01 03:24:52;;;;;;;10.73;7.28;;;5.00;99.90;;;;;;5057028;28;20040;-60
2022/10/01 03:27:19;;;;;;;12.23;8.35;;;4.90;99.90;;;;;;5051607;28;20477;-61
2022/10/01 03:29:44;;;;;;;14.93;7.70;;;4.90;99.90;;;;;;5068797;28;20484;-62
2022/10/01 03:32:11;;;;;;;10.57;7.25;;;4.90;99.90;;;;;;5071430;28;20154;-61
2022/10/01 03:34:36;;;;;;;15.85;8.00;;;4.80;99.90;;;;;;5054699;28;20028;-61
2022/10/01 03:37:03;;;;;;;14.63;9.13;;;4.80;99.90;;;;;;5067752;28;20044;-61
2022/10/01 03:39:29;;;;;;;17.23;10.05;;;4.80;99.90;;;;;;5052971;28;20028;-61
2022/10/01 03:41:54;;;;;;;17.77;9.65;;;4.80;99.90;;;;;;5071026;28;20021;-62
2022/10/01 03:44:20;;;;;;;11.15;8.00;;;4.80;99.90;;;;;;5052110;28;20149;-61
2022/10/01 03:46:46;;;;;;;17.70;8.88;;;4.90;99.90;;;;;;5070977;28;20070;-61
2022/10/01 03:49:11;;;;;;;14.48;7.65;;;4.90;99.90;;;;;;5050658;28;20033;-61
2022/10/01 03:51:37;;;;;;;14.98;8.57;;;4.90;99.90;;;;;;5070957;28;20029;-61
2022/10/01 03:54:04;;;;;;;12.57;8.00;;;4.90;99.90;;;;;;5051240;28;20044;-61
2022/10/01 03:56:30;;;;;;;14.27;8.32;;;4.90;99.90;;;;;;5031018;28;20064;-61
2022/10/01 03:58:55;;;;;;;15.13;8.75;;;4.90;99.90;;;;;;5069204;28;20571;-61
2022/10/01 04:01:21;;;;;;;14.55;7.97;;;4.90;99.90;;;;;;5049387;28;20041;-61
2022/10/01 04:03:49;;;;;;;11.15;8.45;;;4.90;99.90;;;;;;5065523;28;20112;-62
2022/10/01 04:06:15;;;;;;;13.63;8.27;;;4.90;99.90;;;;;;5047879;28;20728;-63
2022/10/01 04:08:41;;;;;;;15.38;8.43;;;4.80;99.90;;;;;;5070245;28;20036;-62
2022/10/01 04:11:07;;;;;;;15.02;8.30;;;4.80;99.90;;;;;;5049103;28;20027;-62
2022/10/01 04:13:33;;;;;;;17.08;9.05;;;4.80;99.90;;;;;;5070008;28;20016;-62
2022/10/01 04:15:59;;;;;;;13.07;9.02;;;4.90;99.90;;;;;;5049277;28;20025;-62
2022/10/01 04:18:25;;;;;;;13.13;7.93;;;5.00;99.90;;;;;;5068504;28;20077;-62
2022/10/01 04:20:50;;;;;;;16.23;8.27;;;5.00;99.90;;;;;;5049436;28;20033;-61
2022/10/01 04:23:16;;;;;;;15.50;8.90;;;5.10;99.90;;;;;;5058181;28;20076;-62
2022/10/01 04:25:41;;;;;;;13.10;8.95;;;5.20;99.90;;;;;;5054955;28;20040;-62
2022/10/01 04:28:10;;;;;;;12.75;8.45;;;5.20;99.90;;;;;;5069477;28;20029;-62
2022/10/01 04:30:37;;;;;;;15.05;9.38;;;5.30;99.90;;;;;;5048599;28;20047;-62
2022/10/01 04:33:05;;;;;;;12.75;8.15;;;5.30;99.90;;;;;;5069990;28;20033;-62
2022/10/01 04:35:31;;;;;;;12.32;8.20;;;5.40;99.90;;;;;;5059403;28;20029;-62
2022/10/01 04:37:58;;;;;;;13.30;8.30;;;5.40;99.90;;;;;;5060689;28;20059;-61
2022/10/01 04:40:24;;;;;;;14.35;8.05;;;5.50;99.90;;;;;;5048552;28;20504;-61
2022/10/01 04:42:50;;;;;;;14.23;9.38;;;5.50;99.90;;;;;;5069267;28;20037;-60
2022/10/01 04:45:15;;;;;;;16.38;9.60;;;5.60;99.90;;;;;;5048609;28;20037;-61
2022/10/01 04:47:49;;;;;;;13.65;9.05;;;5.70;99.90;;;;;;5069172;28;20112;-61
2022/10/01 04:50:15;;;;;;;12.00;9.02;;;5.70;99.90;;;;;;5056131;28;20508;-61
2022/10/01 04:52:41;;;;;;;12.27;8.48;;;5.80;99.90;;;;;;5049874;28;20025;-61
2022/10/01 04:55:07;;;;;;;10.57;7.47;;;5.80;99.90;;;;;;5066741;28;20566;-62
2022/10/01 04:57:34;;;;;;;17.83;9.65;;;5.90;99.90;;;;;;5069684;28;20036;-61
2022/10/01 05:00:00;;;;;;;12.15;8.15;;;6.00;99.90;;;;;;5048188;28;20036;-61
2022/10/01 05:02:27;;;;;;;12.90;8.30;;;6.10;99.90;;;;;;5049858;28;20500;-61
2022/10/01 05:04:53;;;;;;;15.05;8.45;;;6.20;99.90;;;;;;5067103;28;20032;-61
2022/10/01 05:07:18;;;;;;;12.68;7.93;;;6.20;99.90;;;;;;5069397;28;20036;-62
2022/10/01 05:09:44;;;;;;;13.15;8.93;;;6.30;99.90;;;;;;5051440;28;20025;-61
2022/10/01 05:12:09;;;;;;;18.13;10.18;;;6.50;99.90;;;;;;5069656;28;20024;-61
2022/10/01 05:14:35;;;;;;;11.68;8.18;;;6.60;99.90;;;;;;5047898;28;20512;-61
2022/10/01 05:17:00;;;;;;;14.80;7.20;;;6.60;99.90;;;;;;5049546;28;20029;-61
2022/10/01 05:19:28;;;;;;;14.32;8.50;;;6.70;99.90;;;;;;5065301;28;20029;-61
2022/10/01 05:21:54;;;;;;;11.05;7.82;;;6.80;99.90;;;;;;5069138;28;20029;-62
2022/10/01 05:24:20;;;;;;;11.85;7.35;;;6.80;99.90;;;;;;5042632;28;20052;-61
2022/10/01 05:26:45;;;;;;;14.65;8.88;;;6.90;99.90;;;;;;5066863;28;20395;-62
2022/10/01 05:29:14;;;;;;;10.20;8.25;;;6.90;99.90;;;;;;5049771;28;20108;-62
2022/10/01 05:31:43;;;;;;;11.68;8.15;;;7.00;99.90;;;;;;5048252;28;20029;-62
2022/10/01 05:34:09;;;;;;;13.20;9.02;;;7.10;99.90;;;;;;5068869;28;20032;-56
2022/10/01 05:36:35;;;;;;;12.25;8.10;;;7.20;99.90;;;;;;5047808;28;20083;-55
2022/10/01 05:39:01;;;;;;;9.82;7.88;;;7.20;99.90;;;;;;5067323;28;20534;-53
2022/10/01 05:41:26;;;;;;;11.75;6.85;;;7.30;99.90;;;;;;5047659;28;20618;-55
2022/10/01 05:43:52;;;;;;;11.40;8.07;;;7.30;99.90;;;;;;5068323;28;20036;-49
2022/10/01 05:46:18;;;;;;;11.07;8.02;;;7.40;99.90;;;;;;5047496;28;20021;-50
2022/10/01 05:48:44;;;;;;;11.48;7.95;;;7.40;99.90;;;;;;5068330;28;20384;-51
2022/10/01 05:51:09;;;;;;;12.60;7.60;;;7.50;99.90;;;;;;5047376;28;20446;-50
2022/10/01 05:53:39;;;;;;;9.90;7.50;;;7.50;99.90;;;;;;5068190;28;20040;-55
2022/10/01 05:56:07;;;;;;;12.18;7.00;;;7.50;99.90;;;;;;5047165;28;20029;-50
2022/10/01 05:58:33;;;;;;;10.20;6.60;;;7.60;99.90;;;;;;5055915;28;20489;-51
2022/10/01 06:00:59;;;;;;;8.82;6.78;;;7.50;99.90;;;;;;5053717;28;20048;-50
2022/10/01 06:03:27;;;;;;;8.02;6.80;;;7.60;99.90;;;;;;5052043;28;20633;-51
2022/10/01 06:05:53;;;;;;;10.00;7.05;;;7.60;99.90;;;;;;5066094;28;20408;-56
2022/10/01 06:08:20;;;;;;;8.15;6.70;;;7.60;99.90;;;;;;5047074;28;20497;-50
2022/10/01 06:10:46;;;;;;;11.73;6.82;;;7.70;99.90;;;;;;5056223;28;20041;-50
2022/10/01 06:13:16;;;;;;;8.93;6.57;;;7.70;99.90;;;;;;5048835;28;20021;-55
2022/10/01 06:15:42;;;;;;;11.40;7.22;;;7.80;99.90;;;;;;5056263;28;20489;-52
2022/10/01 06:18:10;;;;;;;11.50;7.65;;;7.90;99.90;;;;;;5049172;28;20559;-51
2022/10/01 06:20:37;;;;;;;10.30;7.57;;;8.00;99.90;;;;;;5066173;28;20125;-54
2022/10/01 06:23:10;;;;;;;9.07;6.55;;;8.10;99.90;;;;;;5048244;28;20496;-53
2022/10/01 06:25:37;;;;;;;10.75;7.28;;;8.30;99.90;;;;;;5054913;28;20052;-49
2022/10/01 06:28:04;;;;;;;8.45;6.57;;;8.40;99.90;;;;;;5056146;28;20040;-46
2022/10/01 06:30:31;;;;;;;9.00;7.18;;;8.60;99.90;;;;;;5052730;28;20563;-47
2022/10/01 06:33:03;;;;;;;11.50;6.82;;;8.70;99.90;;;;;;5067766;28;20048;-47
2022/10/01 06:35:30;;;;;;;8.18;6.30;;;8.80;99.90;;;;;;5052600;28;20028;-49
2022/10/01 06:37:56;;;;;;;12.70;6.82;;;8.90;99.90;;;;;;5055414;28;20049;-48
2022/10/01 06:40:22;;;;;;;9.63;6.25;;;9.00;99.90;;;;;;5065161;28;20530;-46
2022/10/01 06:42:48;;;;;;;15.10;6.82;;;9.00;99.90;;;;;;5057083;28;20040;-46
2022/10/01 06:45:15;;;;;;;8.77;6.43;;;9.10;99.90;;;;;;5065750;28;20020;-47
2022/10/01 06:47:40;;;;;;;8.57;5.53;;;9.10;99.90;;;;;;5068405;28;20020;-47
2022/10/01 06:50:06;;;;;;;8.65;6.68;;;9.20;99.90;;;;;;5053069;28;20094;-46
2022/10/01 06:52:50;;;;;;;10.13;6.55;;;9.30;99.90;;;;;;5072230;28;20377;-46
2022/10/01 06:55:22;;;;;;;7.70;5.75;;;9.30;99.90;;;;;;5039738;28;20455;-48
2022/10/01 06:57:53;;;;;;;7.88;5.82;;;9.30;99.90;;;;;;5072252;28;20028;-46
2022/10/01 07:00:18;;;;;;;7.93;6.45;;;9.30;99.90;;;;;;5054755;28;20637;-48
2022/10/01 07:02:44;;;;;;;6.78;5.20;;;9.40;99.90;;;;;;5072128;28;20028;-49
2022/10/01 07:05:11;;;;;;;11.73;6.82;;;9.40;99.90;;;;;;5054193;28;20437;-48
2022/10/01 07:07:37;;;;;;;7.20;5.80;;;9.40;99.90;;;;;;5071905;28;20107;-46
2022/10/01 07:10:05;;;;;;;10.27;6.45;;;9.40;99.90;;;;;;5052980;28;20554;-46
2022/10/01 07:12:32;;;;;;;8.32;5.93;;;9.40;99.90;;;;;;5071538;28;20047;-47
2022/10/01 07:14:58;;;;;;;6.30;5.60;;;9.50;99.90;;;;;;5051716;28;20040;-47
2022/10/01 07:17:23;;;;;;;5.97;5.28;;;9.50;99.90;;;;;;5071817;28;20388;-46
2022/10/01 07:19:49;;;;;;;7.50;5.65;;;9.60;99.90;;;;;;5050343;28;20025;-48
2022/10/01 07:22:14;;;;;;;7.30;5.38;;;9.60;99.90;;;;;;5071855;28;20496;-48
2022/10/01 07:24:40;;;;;;;5.93;4.70;;;9.70;99.90;;;;;;5044178;28;20061;-49
2022/10/01 07:27:05;;;;;;;7.53;5.45;;;9.70;99.90;;;;;;5049971;28;20029;-48
2022/10/01 07:29:31;;;;;;;6.57;4.53;;;9.80;99.90;;;;;;5070937;28;20438;-48
2022/10/01 07:31:58;;;;;;;7.88;5.25;;;9.80;99.90;;;;;;5049993;28;20032;-47
2022/10/01 07:34:25;;;;;;;7.03;5.53;;;9.80;99.90;;;;;;5070976;28;20048;-50
2022/10/01 07:36:50;;;;;;;6.97;5.35;;;9.80;99.90;;;;;;5050677;28;20091;-46
2022/10/01 07:39:16;;;;;;;7.13;5.15;;;9.90;99.90;;;;;;5071261;28;20527;-50
2022/10/01 07:41:42;;;;;;;6.40;4.63;;;9.90;99.90;;;;;;5050135;28;20029;-47
2022/10/01 07:44:10;;;;;;;6.57;4.80;;;9.90;99.90;;;;;;5070477;28;20520;-49
2022/10/01 07:46:39;;;;;;;8.43;5.03;;;10.00;99.90;;;;;;5049623;28;20036;-48
2022/10/01 07:49:05;;;;;;;7.80;5.30;;;10.00;99.90;;;;;;5070761;28;20033;-48
2022/10/01 07:51:31;;;;;;;6.30;5.18;;;10.00;99.90;;;;;;5049563;28;20131;-46
2022/10/01 07:53:57;;;;;;;7.57;5.25;;;10.00;99.90;;;;;;5069162;28;20388;-46
2022/10/01 07:56:23;;;;;;;7.65;5.90;;;10.00;99.90;;;;;;5049517;28;20140;-49
2022/10/01 07:58:53;;;;;;;7.25;4.72;;;10.10;99.90;;;;;;5070163;28;20471;-53
2022/10/01 08:01:19;;;;;;;7.82;4.68;;;10.10;99.90;;;;;;5059331;28;20036;-53
2022/10/01 08:03:47;;;;;;;6.85;4.72;;;10.20;99.90;;;;;;5051473;28;20041;-54
2022/10/01 08:06:13;;;;;;;9.02;4.55;;;10.30;99.90;;;;;;5068473;28;20493;-49
2022/10/01 08:08:39;;;;;;;7.30;5.30;;;10.30;99.90;;;;;;5051270;28;20405;-54
2022/10/01 08:11:06;;;;;;;7.35;5.20;;;10.40;99.90;;;;;;5067945;28;20040;-48
2022/10/01 08:13:33;;;;;;;6.60;4.30;;;10.40;99.90;;;;;;5050836;28;20432;-53
2022/10/01 08:16:03;;;;;;;5.32;4.80;;;10.50;99.90;;;;;;5068305;28;20082;-53
2022/10/01 08:18:29;;;;;;;7.40;4.85;;;10.60;99.90;;;;;;5050410;28;20056;-51
2022/10/01 08:20:54;;;;;;;7.43;4.75;;;10.70;99.90;;;;;;5067801;28;20036;-50
2022/10/01 08:23:20;;;;;;;5.32;4.50;;;10.70;99.90;;;;;;5055024;28;20036;-51
2022/10/01 08:25:46;;;;;;;5.88;4.50;;;10.80;99.90;;;;;;5067284;28;20032;-53
2022/10/01 08:28:13;;;;;;;4.90;4.40;;;10.90;99.90;;;;;;5070498;28;20028;-50
2022/10/01 08:30:40;;;;;;;5.30;4.28;;;11.00;99.90;;;;;;5053792;28;20469;-54
2022/10/01 08:33:07;;;;;;;6.68;4.53;;;11.00;99.90;;;;;;5070370;28;20028;-49
2022/10/01 08:35:32;;;;;;;11.70;5.28;;;11.10;99.90;;;;;;5052883;28;20059;-52
2022/10/01 08:38:02;;;;;;;6.40;4.57;;;11.20;99.90;;;;;;5058800;28;20048;-50
2022/10/01 08:40:29;;;;;;;7.60;4.50;;;11.20;99.90;;;;;;5067369;28;20020;-49
2022/10/01 08:43:05;;;;;;;5.65;3.85;;;11.30;99.90;;;;;;5065983;28;20021;-48
2022/10/01 08:45:51;;;;;;;7.20;5.07;;;11.30;99.90;;;;;;5051892;28;20027;-49
2022/10/01 08:48:38;;;;;;;5.78;4.45;;;11.40;99.90;;;;;;5070087;28;20029;-47
2022/10/01 08:51:39;;;;;;;5.43;4.45;;;11.50;99.90;;;;;;5044062;28;20032;-48
2022/10/01 08:54:41;;;;;;;6.53;4.57;;;11.60;99.90;;;;;;5056145;28;20036;-51
2022/10/01 08:57:17;;;;;;;5.95;4.18;;;11.70;99.90;;;;;;5048190;28;20057;-47
2022/10/01 08:59:53;;;;;;;6.22;4.07;;;11.80;99.90;;;;;;5069648;28;20564;-47
2022/10/01 09:02:24;;;;;;;4.90;4.13;;;11.80;99.90;;;;;;5046099;28;20664;-47
2022/10/01 09:04:54;;;;;;;5.85;3.50;;;11.90;99.90;;;;;;5068592;28;20083;-49
2022/10/01 09:07:22;;;;;;;5.22;3.75;;;12.00;99.90;;;;;;5041592;28;20039;-47
2022/10/01 09:09:59;;;;;;;5.53;3.53;;;12.20;99.70;;;;;;5054407;28;20037;-51
2022/10/01 09:12:45;;;;;;;5.55;3.42;;;12.30;97.50;;;;;;5032202;28;20033;-47
2022/10/01 09:15:46;;;;;;;4.25;2.95;;;12.50;97.40;;;;;;5034041;28;20801;-48
2022/10/01 09:18:37;;;;;;;4.05;3.03;;;12.60;95.20;;;;;;5038524;28;20029;-49
2022/10/01 09:21:15;;;;;;;5.00;3.80;;;12.80;96.90;;;;;;5039558;28;20501;-50
2022/10/01 09:23:55;;;;;;;3.75;2.88;;;13.00;95.40;;;;;;5055509;28;20044;-54
2022/10/01 09:26:20;;;;;;;5.35;3.35;;;13.20;93.80;;;;;;5025997;28;20037;-51
2022/10/01 09:28:50;;;;;;;4.50;3.13;;;13.30;89.10;;;;;;5040960;28;20048;-52
2022/10/01 09:31:25;;;;;;;4.75;3.50;;;13.50;92.20;;;;;;5044859;28;20064;-55
2022/10/01 09:34:02;;;;;;;6.28;3.53;;;13.60;88.80;;;;;;5047151;28;20033;-52
2022/10/01 09:36:51;;;;;;;6.13;3.00;;;13.80;82.50;;;;;;5036100;28;20029;-57
2022/10/01 09:39:27;;;;;;;6.00;2.78;;;13.90;80.70;;;;;;5031371;28;20635;-51
2022/10/01 09:41:53;;;;;;;7.03;3.78;;;14.00;79.50;;;;;;5025892;28;20073;-57
2022/10/01 09:44:26;;;;;;;4.60;2.65;;;14.00;79.40;;;;;;5037791;28;20029;-56
2022/10/01 09:46:52;;;;;;;5.95;2.67;;;14.00;82.40;;;;;;5028287;28;20040;-56
2022/10/01 09:49:32;;;;;;;5.15;2.55;;;14.10;84.30;;;;;;5057742;28;20397;-59
2022/10/01 09:52:08;;;;;;;3.67;2.38;;;14.20;80.80;;;;;;5032661;28;20032;-57
2022/10/01 09:54:42;;;;;;;3.23;2.50;;;14.30;82.50;;;;;;5028062;28;20120;-57
2022/10/01 09:57:42;;;;;;;3.60;2.40;;;14.30;81.60;;;;;;5030265;28;20032;-56
2022/10/01 10:00:26;;;;;;;3.10;2.50;;;14.20;76.10;;;;;;5039630;28;20448;-57
2022/10/01 10:02:53;;;;;;;3.25;2.42;;;14.10;78.50;;;;;;5038753;28;20029;-57
2022/10/01 10:05:24;;;;;;;5.55;2.45;;;14.00;78.10;;;;;;5058396;28;20029;-58
2022/10/01 10:07:54;;;;;;;4.20;2.70;;;13.90;83.70;;;;;;5037930;28;20025;-57
2022/10/01 10:10:24;;;;;;;3.40;2.50;;;13.90;82.70;;;;;;5050648;28;20021;-57
2022/10/01 10:12:55;;;;;;;4.70;2.40;;;13.90;80.40;;;;;;5034133;28;20075;-57
2022/10/01 10:15:25;;;;;;;8.05;2.58;;;13.90;83.30;;;;;;5039245;28;20029;-56
2022/10/01 10:17:51;;;;;;;4.68;2.40;;;13.80;84.40;;;;;;5026038;28;20049;-56
2022/10/01 10:20:28;;;;;;;11.15;6.53;;;13.90;89.70;;;;;;5055389;28;20025;-58
2022/10/01 10:23:15;;;;;;;5.90;3.83;;;13.90;89.90;;;;;;5028402;28;20036;-58
2022/10/01 10:25:41;;;;;;;6.78;4.35;;;13.90;90.20;;;;;;5048916;28;20029;-55
2022/10/01 10:28:22;;;;;;;6.53;4.10;;;13.90;91.00;;;;;;5056080;28;20051;-58
2022/10/01 10:30:52;;;;;;;6.25;4.22;;;13.80;91.60;;;;;;5038613;28;20078;-57
2022/10/01 10:33:20;;;;;;;7.88;5.72;;;13.70;91.10;;;;;;5034079;28;20026;-56
2022/10/01 10:36:08;;;;;;;7.80;4.93;;;13.60;92.20;;;;;;5052224;28;20125;-57
2022/10/01 10:38:34;;;;;;;4.95;3.50;;;13.50;92.90;;;;;;5053412;28;20053;-57
2022/10/01 10:41:02;;;;;;;5.30;2.97;;;13.30;95.60;;;;;;5060367;28;20044;-54
2022/10/01 10:43:33;;;;;;;6.15;3.22;;;13.20;95.30;;;;;;5048424;28;20043;-57
2022/10/01 10:46:00;;;;;;;3.20;2.50;;;13.30;97.10;;;;;;5042426;28;20040;-56
2022/10/01 10:48:35;;;;;;;5.25;3.58;;;13.30;97.80;;;;;;5037593;28;20032;-58
2022/10/01 10:51:04;;;;;;;3.88;2.75;;;13.20;98.40;;;;;;5047130;28;20027;-55
2022/10/01 10:53:39;;;;;;;4.50;2.70;;;13.20;99.80;;;;;;5053441;28;20136;-54
2022/10/01 10:56:13;;;;;;;3.78;2.30;;;13.10;99.90;;;;;;5047693;28;20652;-56
2022/10/01 10:58:41;;;;;;;3.28;2.42;;;13.00;99.90;;;;;;5052673;28;20044;-54
2022/10/01 11:01:12;;;;;;;4.28;2.80;;;12.90;99.90;;;;;;5062853;28;20028;-51
2022/10/01 11:03:43;;;;;;;3.38;2.53;;;12.90;99.90;;;;;;5047726;28;20032;-52
2022/10/01 11:06:13;;;;;;;2.42;2.08;;;12.80;99.90;;;;;;5032738;28;20505;-52
2022/10/01 11:08:39;;;;;;;2.67;2.30;;;12.70;99.90;;;;;;5037581;28;20025;-54
2022/10/01 11:11:19;;;;;;;3.00;2.50;;;12.70;99.90;;;;;;5063231;28;20021;-56
2022/10/01 11:14:24;;;;;;;5.68;3.40;;;12.60;99.90;;;;;;5039663;28;20090;-52
2022/10/01 11:17:21;;;;;;;9.27;5.20;;;12.60;99.90;;;;;;5019314;28;20045;-54
2022/10/01 11:20:05;;;;;;;;;;;12.40;99.90;;;;;;5016607;28;20052;-56
2022/10/01 11:23:06;;;;;;;8.05;3.75;;;12.40;99.90;;;;;;5040347;28;20400;-54
2022/10/01 11:26:09;;;;;;;15.13;6.22;;;12.40;99.90;;;;;;5042422;28;20123;-52
2022/10/01 11:29:02;;;;;;;18.25;7.70;;;12.30;99.90;;;;;;5038249;28;20049;-56
2022/10/01 11:32:01;;;;;;;8.10;4.10;;;12.30;99.90;;;;;;5046927;28;20028;-54
2022/10/01 11:34:54;;;;;;;11.90;5.25;;;12.20;99.90;;;;;;5039994;28;20025;-53
2022/10/01 11:37:23;;;;;;;10.32;4.75;;;12.20;99.90;;;;;;5051624;28;20044;-54
2022/10/01 11:39:52;;;;;;;19.50;8.57;;;12.20;99.90;;;;;;5054619;28;20044;-56
2022/10/01 11:42:23;;;;;;;9.00;5.90;;;12.20;99.90;;;;;;5043929;28;20090;-53
2022/10/01 11:45:03;;;;;;;5.18;4.05;;;12.20;99.90;;;;;;5040013;28;20029;-55
2022/10/01 11:47:39;;;;;;;11.88;3.90;;;12.20;99.90;;;;;;5036310;28;20033;-56
2022/10/01 11:50:19;;;;;;;3.95;2.67;;;12.10;99.90;;;;;;5039764;28;20033;-55
2022/10/01 11:53:10;;;;;;;3.25;2.70;;;12.00;99.90;;;;;;5029669;28;20033;-56
2022/10/01 12:01:22;;;;;;;4.30;3.35;;;12.00;99.90;;;;;;5042612;28;20641;-55
2022/10/01 12:03:51;;;;;;;5.75;3.80;;;12.00;99.90;;;;;;5057142;28;20090;-54
2022/10/01 12:06:27;;;;;;;5.32;3.88;;;12.00;99.90;;;;;;5062016;28;20024;-57
2022/10/01 12:09:16;;;;;;;5.70;4.20;;;12.00;99.90;;;;;;5044485;28;20665;-55
2022/10/01 12:11:53;;;;;;;9.70;7.40;;;12.00;99.90;;;;;;5052621;28;20028;-55
2022/10/01 12:14:30;;;;;;;8.73;6.28;;;12.00;99.90;;;;;;5040080;28;20052;-56
2022/10/01 12:17:11;;;;;;;20.45;14.05;;;12.00;99.90;;;;;;5055784;28;20044;-56
2022/10/01 12:19:41;;;;;;;7.75;6.38;;;12.00;99.90;;;;;;5036364;28;20103;-54
2022/10/01 12:22:11;;;;;;;18.67;12.13;;;12.00;99.90;;;;;;5046068;28;20037;-57
2022/10/01 12:24:41;;;;;;;18.65;12.93;;;11.90;99.90;;;;;;5050898;28;20492;-55
2022/10/01 12:27:34;;;;;;;12.43;10.00;;;11.90;99.90;;;;;;5061612;28;20033;-57
2022/10/01 12:30:28;;;;;;;16.80;11.07;;;11.90;99.90;;;;;;5040635;28;20025;-57
2022/10/01 12:33:03;;;;;;;13.43;8.15;;;11.80;99.90;;;;;;5035406;28;20580;-57
2022/10/01 12:36:11;;;;;;;12.85;8.93;;;11.80;99.90;;;;;;5058541;28;20088;-53
2022/10/01 12:38:53;;;;;;;10.18;7.10;;;11.80;99.90;;;;;;5031509;28;20049;-57
2022/10/01 12:41:50;;;;;;;10.90;7.82;;;11.70;99.90;;;;;;5056918;28;20028;-57
2022/10/01 12:44:38;;;;;;;10.93;8.05;;;11.80;99.90;;;;;;5043479;28;20030;-57
2022/10/01 12:47:41;;;;;;;7.97;5.43;;;11.80;99.90;;;;;;5054659;28;20031;-55
2022/10/01 12:50:50;;;;;;;6.07;4.60;;;11.80;99.90;;;;;;5048383;28;20429;-57
2022/10/01 12:53:24;;;;;;;7.10;4.43;;;11.80;99.90;;;;;;5025669;28;20489;-56
2022/10/01 12:56:29;;;;;;;6.03;4.10;;;11.90;99.90;;;;;;5048065;28;20577;-56
2022/10/01 12:59:29;;;;;;;8.90;4.40;;;11.80;99.90;;;;;;5034058;28;20041;-55
2022/10/01 13:02:30;;;;;;;8.25;4.68;;;11.90;99.90;;;;;;5054067;28;20535;-57
2022/10/01 13:05:07;;;;;;;13.68;4.72;;;11.90;99.90;;;;;;5037733;28;20192;-53
2022/10/01 13:07:55;;;;;;;11.02;6.07;;;11.90;99.90;;;;;;5042307;28;20420;-57
2022/10/01 13:10:37;;;;;;;8.65;5.45;;;11.90;99.90;;;;;;5027418;28;20037;-56
2022/10/01 13:13:07;;;;;;;7.75;4.15;;;11.90;99.90;;;;;;5030622;28;20038;-57
2022/10/01 13:15:42;;;;;;;5.80;3.85;;;11.90;99.90;;;;;;5053823;28;20041;-55
2022/10/01 13:18:36;;;;;;;4.05;3.13;;;11.90;99.90;;;;;;5035068;28;20037;-57